createdAt,value
2023-04-17T00:00:46.510Z,21.00
2023-04-17T00:03:14.359Z,21.00
2023-04-17T00:05:43.649Z,21.00
2023-04-17T00:08:11.341Z,20.90
2023-04-17T00:10:39.038Z,21.00
2023-04-17T00:13:08.112Z,20.90
2023-04-17T00:15:36.193Z,20.90
2023-04-17T00:18:03.931Z,20.90
2023-04-17T00:20:31.654Z,20.90
2023-04-17T00:22:59.442Z,20.90
2023-04-17T00:25:27.403Z,20.90
2023-04-17T00:27:55.085Z,20.80
2023-04-17T00:30:24.436Z,20.80
2023-04-17T00:32:52.832Z,20.80
2023-04-17T00:35:20.892Z,20.80
2023-04-17T00:37:49.340Z,20.80
2023-04-17T00:40:17.339Z,20.80
2023-04-17T00:42:53.071Z,20.80
2023-04-17T00:45:21.669Z,20.70
2023-04-17T00:47:51.061Z,20.70
2023-04-17T00:50:19.107Z,20.70
2023-04-17T00:52:47.000Z,20.70
2023-04-17T00:55:15.170Z,20.70
2023-04-17T00:57:43.470Z,20.60
2023-04-17T01:00:12.818Z,20.60
2023-04-17T01:02:41.024Z,20.60
2023-04-17T01:05:10.875Z,20.60
2023-04-17T01:07:38.790Z,20.60
2023-04-17T01:10:07.570Z,20.50
2023-04-17T01:12:35.296Z,20.60
2023-04-17T01:15:03.432Z,20.60
2023-04-17T01:17:31.302Z,20.60
2023-04-17T01:19:59.285Z,20.60
2023-04-17T01:22:28.435Z,20.60
2023-04-17T01:24:57.859Z,20.60
2023-04-17T01:27:25.865Z,20.50
2023-04-17T01:29:53.690Z,20.60
2023-04-17T01:32:21.697Z,20.50
2023-04-17T01:34:49.655Z,20.50
2023-04-17T01:37:17.503Z,20.50
2023-04-17T01:39:45.863Z,20.50
2023-04-17T01:42:15.437Z,20.50
2023-04-17T01:44:43.318Z,20.50
2023-04-17T01:47:11.273Z,20.50
2023-04-17T01:49:39.164Z,20.50
2023-04-17T01:52:07.528Z,20.50
2023-04-17T01:54:35.442Z,20.50
2023-04-17T01:57:03.396Z,20.50
2023-04-17T01:59:32.648Z,20.50
2023-04-17T02:02:00.633Z,20.50
2023-04-17T02:04:28.553Z,20.40
2023-04-17T02:06:56.494Z,20.40
2023-04-17T02:09:24.531Z,20.40
2023-04-17T02:11:52.232Z,20.40
2023-04-17T02:14:19.987Z,20.40
2023-04-17T02:16:50.089Z,20.40
2023-04-17T02:19:17.821Z,20.40
2023-04-17T02:21:45.618Z,20.40
2023-04-17T02:24:13.370Z,20.30
2023-04-17T02:26:41.472Z,20.30
2023-04-17T02:29:09.322Z,20.30
2023-04-17T02:31:37.159Z,20.30
2023-04-17T02:34:06.349Z,20.30
2023-04-17T02:36:34.092Z,20.30
2023-04-17T02:39:01.791Z,20.30
2023-04-17T02:41:29.620Z,20.30
2023-04-17T02:43:58.654Z,20.30
2023-04-17T02:46:26.365Z,20.30
2023-04-17T02:48:54.113Z,20.30
2023-04-17T02:51:23.476Z,20.30
2023-04-17T02:53:51.271Z,20.20
2023-04-17T02:56:19.542Z,20.20
2023-04-17T02:58:47.228Z,20.20
2023-04-17T03:01:15.408Z,20.20
2023-04-17T03:03:44.953Z,20.20
2023-04-17T03:06:13.377Z,20.20
2023-04-17T03:08:43.404Z,20.20
2023-04-17T03:11:11.524Z,20.20
2023-04-17T03:13:39.473Z,20.20
2023-04-17T03:16:08.460Z,20.10
2023-04-17T03:18:36.762Z,20.20
2023-04-17T03:21:04.746Z,20.10
2023-04-17T03:23:33.016Z,20.10
2023-04-17T03:26:02.636Z,20.10
2023-04-17T03:28:31.019Z,20.10
2023-04-17T03:30:59.619Z,20.10
2023-04-17T03:33:27.632Z,20.10
2023-04-17T03:35:55.549Z,20.10
2023-04-17T03:38:23.761Z,20.10
2023-04-17T03:40:51.739Z,20.10
2023-04-17T03:43:21.229Z,20.00
2023-04-17T03:45:49.335Z,20.00
2023-04-17T03:48:17.637Z,20.00
2023-04-17T03:50:45.648Z,20.00
2023-04-17T03:53:13.697Z,20.00
2023-04-17T03:55:42.353Z,20.00
2023-04-17T03:58:10.268Z,20.00
2023-04-17T04:00:39.998Z,20.00
2023-04-17T04:03:08.088Z,20.00
2023-04-17T04:05:36.015Z,20.00
2023-04-17T04:08:03.987Z,20.00
2023-04-17T04:10:32.442Z,19.90
2023-04-17T04:13:00.206Z,19.90
2023-04-17T04:15:27.898Z,19.90
2023-04-17T04:17:57.161Z,19.90
2023-04-17T04:20:25.060Z,19.90
2023-04-17T04:22:53.106Z,19.90
2023-04-17T04:25:21.644Z,19.90
2023-04-17T04:27:50.832Z,19.90
2023-04-17T04:30:18.660Z,19.90
2023-04-17T04:32:46.575Z,19.90
2023-04-17T04:35:15.693Z,19.90
2023-04-17T04:37:46.726Z,19.90
2023-04-17T04:40:14.855Z,19.90
2023-04-17T04:42:42.902Z,19.90
2023-04-17T04:45:11.433Z,19.90
2023-04-17T04:47:39.620Z,19.80
2023-04-17T04:50:08.448Z,19.80
2023-04-17T04:52:37.943Z,19.80
2023-04-17T04:55:06.501Z,19.90
2023-04-17T04:57:34.550Z,19.80
2023-04-17T05:00:02.294Z,19.80
2023-04-17T05:02:30.088Z,19.80
2023-04-17T05:04:58.174Z,19.80
2023-04-17T05:07:26.147Z,19.80
2023-04-17T05:09:55.542Z,19.80
2023-04-17T05:12:23.545Z,19.80
2023-04-17T05:14:53.232Z,19.80
2023-04-17T05:17:21.322Z,19.80
2023-04-17T05:19:49.279Z,19.80
2023-04-17T05:22:17.198Z,19.90
2023-04-17T05:24:45.092Z,19.80
2023-04-17T05:27:14.615Z,19.80
2023-04-17T05:29:42.504Z,19.80
2023-04-17T05:32:11.010Z,19.80
2023-04-17T05:34:39.039Z,19.80
2023-04-17T05:37:07.077Z,19.90
2023-04-17T05:39:35.177Z,19.90
2023-04-17T05:42:03.102Z,19.90
2023-04-17T05:44:32.509Z,19.90
2023-04-17T05:47:00.498Z,19.90
2023-04-17T05:49:28.513Z,19.90
2023-04-17T05:51:56.418Z,19.90
2023-04-17T05:54:24.697Z,19.90
2023-04-17T05:56:53.090Z,20.00
2023-04-17T05:59:21.147Z,20.00
2023-04-17T06:01:51.573Z,20.00
2023-04-17T06:04:19.728Z,20.00
2023-04-17T06:06:48.243Z,20.00
2023-04-17T06:09:16.056Z,20.00
2023-04-17T06:11:44.567Z,20.00
2023-04-17T06:14:12.561Z,20.10
2023-04-17T06:16:40.899Z,20.10
2023-04-17T06:19:10.608Z,20.20
2023-04-17T06:21:38.851Z,20.20
2023-04-17T06:24:07.760Z,20.20
2023-04-17T06:26:35.886Z,20.20
2023-04-17T06:29:04.972Z,20.30
2023-04-17T06:31:33.023Z,20.30
2023-04-17T06:34:00.973Z,20.30
2023-04-17T06:36:31.305Z,20.40
2023-04-17T06:38:59.121Z,20.40
2023-04-17T06:41:26.793Z,20.40
2023-04-17T06:43:55.208Z,20.50
2023-04-17T06:46:23.137Z,20.50
2023-04-17T06:48:52.582Z,20.50
2023-04-17T06:51:21.708Z,20.50
2023-04-17T06:53:51.306Z,20.60
2023-04-17T06:56:19.557Z,20.60
2023-04-17T06:58:48.170Z,20.70
2023-04-17T07:01:16.224Z,20.80
2023-04-17T07:03:44.670Z,20.80
2023-04-17T07:06:13.009Z,20.80
2023-04-17T07:08:40.907Z,20.90
2023-04-17T07:11:10.230Z,20.90
2023-04-17T07:13:38.619Z,21.00
2023-04-17T07:16:07.228Z,21.00
2023-04-17T07:18:35.211Z,21.00
2023-04-17T07:21:03.189Z,21.00
2023-04-17T07:23:31.311Z,21.10
2023-04-17T07:25:59.081Z,21.10
2023-04-17T07:28:28.144Z,21.20
2023-04-17T07:30:58.026Z,21.20
2023-04-17T07:33:26.236Z,21.30
2023-04-17T07:35:54.299Z,21.30
2023-04-17T07:38:22.041Z,21.30
2023-04-17T07:40:50.125Z,21.40
2023-04-17T07:43:18.337Z,21.50
2023-04-17T07:45:48.981Z,21.50
2023-04-17T07:48:18.545Z,21.60
2023-04-17T07:50:46.599Z,21.60
2023-04-17T07:53:14.449Z,21.70
2023-04-17T07:55:42.729Z,21.80
2023-04-17T07:58:11.373Z,21.80
2023-04-17T08:00:39.301Z,21.90
2023-04-17T08:03:08.746Z,21.90
2023-04-17T08:05:36.766Z,22.00
2023-04-17T08:08:05.602Z,22.10
2023-04-17T08:10:33.286Z,22.20
2023-04-17T08:13:01.516Z,22.20
2023-04-17T08:15:40.917Z,22.30
2023-04-17T08:18:10.945Z,22.30
2023-04-17T08:20:39.181Z,22.40
2023-04-17T08:23:07.373Z,22.50
2023-04-17T08:25:35.527Z,22.50
2023-04-17T08:28:04.099Z,22.60
2023-04-17T08:30:32.153Z,22.70
2023-04-17T08:33:00.694Z,22.70
2023-04-17T08:35:30.024Z,22.80
2023-04-17T08:37:59.932Z,22.80
2023-04-17T08:40:27.733Z,22.90
2023-04-17T08:42:55.521Z,23.00
2023-04-17T08:45:25.039Z,23.10
2023-04-17T08:47:53.007Z,23.20
2023-04-17T08:50:22.112Z,23.40
2023-04-17T08:52:52.612Z,23.50
2023-04-17T08:55:22.260Z,23.70
2023-04-17T08:57:59.496Z,23.90
2023-04-17T09:00:28.384Z,24.20
2023-04-17T09:02:57.618Z,24.40
2023-04-17T09:05:26.429Z,24.60
2023-04-17T09:08:08.607Z,24.90
2023-04-17T09:10:37.825Z,25.10
2023-04-17T09:13:05.767Z,25.40
2023-04-17T09:15:33.793Z,25.70
2023-04-17T09:18:01.847Z,25.90
2023-04-17T09:20:29.868Z,25.90
2023-04-17T09:23:03.127Z,26.00
2023-04-17T09:25:31.252Z,26.00
2023-04-17T09:28:11.578Z,26.10
2023-04-17T09:30:40.125Z,26.20
2023-04-17T09:33:08.859Z,26.50
2023-04-17T09:35:39.951Z,26.80
2023-04-17T09:38:10.336Z,27.10
2023-04-17T09:40:39.066Z,27.40
2023-04-17T09:43:14.077Z,27.60
2023-04-17T09:45:44.639Z,27.70
2023-04-17T09:48:13.364Z,27.80
2023-04-17T09:50:41.443Z,28.00
2023-04-17T09:53:16.032Z,28.10
2023-04-17T09:55:44.825Z,28.20
2023-04-17T09:58:12.780Z,28.50
2023-04-17T10:00:41.123Z,28.70
2023-04-17T10:03:09.372Z,29.00
2023-04-17T10:05:37.607Z,29.30
2023-04-17T10:08:05.986Z,29.50
2023-04-17T10:10:36.417Z,29.60
2023-04-17T10:13:05.544Z,29.80
2023-04-17T10:15:34.200Z,30.00
2023-04-17T10:18:20.088Z,30.10
2023-04-17T10:20:48.656Z,30.30
2023-04-17T10:23:40.553Z,30.50
2023-04-17T10:26:39.748Z,30.80
2023-04-17T10:29:07.487Z,31.20
2023-04-17T10:32:26.329Z,31.40
2023-04-17T10:34:54.603Z,31.40
2023-04-17T10:37:23.292Z,31.70
2023-04-17T10:39:52.746Z,31.80
2023-04-17T10:42:22.974Z,32.00
2023-04-17T10:44:51.876Z,32.30
2023-04-17T10:47:21.527Z,32.50
2023-04-17T10:49:52.996Z,32.70
2023-04-17T10:52:38.299Z,33.00
2023-04-17T10:55:07.976Z,33.30
2023-04-17T10:57:57.844Z,33.60
2023-04-17T11:00:33.526Z,33.90
2023-04-17T11:03:02.019Z,34.20
2023-04-17T11:05:31.193Z,34.30
2023-04-17T11:07:59.127Z,34.60
2023-04-17T11:10:26.988Z,34.70
2023-04-17T11:12:56.852Z,34.90
2023-04-17T11:15:28.858Z,35.40
2023-04-17T11:17:58.822Z,36.40
2023-04-17T11:20:27.784Z,37.50
2023-04-17T11:22:58.115Z,38.40
2023-04-17T11:25:27.573Z,39.60
2023-04-17T11:28:00.511Z,40.60
2023-04-17T11:30:29.130Z,41.60
2023-04-17T11:32:59.013Z,42.40
2023-04-17T11:35:31.059Z,43.10
2023-04-17T11:38:12.944Z,43.90
2023-04-17T11:40:45.680Z,44.70
2023-04-17T11:43:15.070Z,45.30
2023-04-17T11:45:44.615Z,45.90
2023-04-17T11:48:13.042Z,46.40
2023-04-17T11:50:42.111Z,46.80
2023-04-17T11:53:09.799Z,47.20
2023-04-17T11:55:37.472Z,47.50
2023-04-17T11:58:07.884Z,47.70
2023-04-17T12:00:38.069Z,48.00
2023-04-17T12:03:33.703Z,48.20
2023-04-17T12:06:01.791Z,48.40
2023-04-17T12:08:29.997Z,48.70
2023-04-17T12:10:58.238Z,48.80
2023-04-17T12:13:26.176Z,49.00
2023-04-17T12:15:55.334Z,49.10
2023-04-17T12:18:23.074Z,49.40
2023-04-17T12:20:51.297Z,49.70
2023-04-17T12:23:19.136Z,49.90
2023-04-17T12:25:47.426Z,50.00
2023-04-17T12:28:15.330Z,50.20
2023-04-17T12:30:43.592Z,50.40
2023-04-17T12:33:12.966Z,50.50
2023-04-17T12:35:40.822Z,50.60
2023-04-17T12:38:08.913Z,50.70
2023-04-17T12:40:39.112Z,50.70
2023-04-17T12:43:08.402Z,50.80
2023-04-17T12:45:37.252Z,50.90
2023-04-17T12:48:05.439Z,51.00
2023-04-17T12:50:40.510Z,50.90
2023-04-17T12:53:08.257Z,50.80
2023-04-17T12:55:38.542Z,50.90
2023-04-17T12:58:06.684Z,50.80
2023-04-17T13:00:34.732Z,50.80
2023-04-17T13:03:02.876Z,50.90
2023-04-17T13:05:31.018Z,50.80
2023-04-17T13:08:00.771Z,50.60
2023-04-17T13:10:28.638Z,50.50
2023-04-17T13:12:56.889Z,50.60
2023-04-17T13:15:24.742Z,50.50
2023-04-17T13:17:52.586Z,50.50
2023-04-17T13:20:20.646Z,50.40
2023-04-17T13:22:48.484Z,49.60
2023-04-17T13:25:18.072Z,48.80
2023-04-17T13:27:45.760Z,48.20
2023-04-17T13:30:14.069Z,47.20
2023-04-17T13:32:41.981Z,46.30
2023-04-17T13:35:13.558Z,45.70
2023-04-17T13:37:41.441Z,45.10
2023-04-17T13:40:10.756Z,44.50
2023-04-17T13:42:40.661Z,43.80
2023-04-17T13:45:09.505Z,43.40
2023-04-17T13:47:37.885Z,43.40
2023-04-17T13:50:06.946Z,43.50
2023-04-17T13:52:34.845Z,43.80
2023-04-17T13:55:02.707Z,44.00
2023-04-17T13:57:30.502Z,44.30
2023-04-17T14:00:00.162Z,44.50
2023-04-17T14:02:28.187Z,44.80
2023-04-17T14:04:56.462Z,45.00
2023-04-17T14:07:24.412Z,45.20
2023-04-17T14:09:52.857Z,45.20
2023-04-17T14:12:21.728Z,45.20
2023-04-17T14:14:49.812Z,45.40
2023-04-17T14:17:18.870Z,45.40
2023-04-17T14:19:46.995Z,45.50
2023-04-17T14:22:15.305Z,45.40
2023-04-17T14:24:43.077Z,45.20
2023-04-17T14:27:11.459Z,44.90
2023-04-17T14:29:39.360Z,44.20
2023-04-17T14:32:07.227Z,43.50
2023-04-17T14:34:36.667Z,43.00
2023-04-17T14:37:04.552Z,42.50
2023-04-17T14:39:33.285Z,41.90
2023-04-17T14:42:02.154Z,41.50
2023-04-17T14:44:30.594Z,41.10
2023-04-17T14:46:58.376Z,40.60
2023-04-17T14:49:26.575Z,40.10
2023-04-17T14:51:56.017Z,39.70
2023-04-17T14:54:24.214Z,39.30
2023-04-17T14:56:53.616Z,39.00
2023-04-17T14:59:21.509Z,38.80
2023-04-17T15:01:49.906Z,38.50
2023-04-17T15:04:18.048Z,38.30
2023-04-17T15:06:45.913Z,38.00
2023-04-17T15:09:15.292Z,37.90
2023-04-17T15:11:43.536Z,37.70
2023-04-17T15:14:12.160Z,37.50
2023-04-17T15:16:40.483Z,37.30
2023-04-17T15:19:08.513Z,37.10
2023-04-17T15:21:36.704Z,36.90
2023-04-17T15:24:05.183Z,36.70
2023-04-17T15:26:34.378Z,36.40
2023-04-17T15:29:03.369Z,36.20
2023-04-17T15:31:31.143Z,36.00
2023-04-17T15:33:59.071Z,35.80
2023-04-17T15:36:28.126Z,35.60
2023-04-17T15:38:56.033Z,35.40
2023-04-17T15:41:24.473Z,35.20
2023-04-17T15:43:54.279Z,35.10
2023-04-17T15:46:22.237Z,34.90
2023-04-17T15:49:04.964Z,34.80
2023-04-17T15:51:38.058Z,34.60
2023-04-17T15:54:07.639Z,34.50
2023-04-17T15:56:35.553Z,34.40
2023-04-17T15:59:05.107Z,34.30
2023-04-17T16:01:33.152Z,34.10
2023-04-17T16:04:01.233Z,33.90
2023-04-17T16:06:29.793Z,33.90
2023-04-17T16:08:57.741Z,33.70
2023-04-17T16:11:26.072Z,33.60
2023-04-17T16:13:54.477Z,33.50
2023-04-17T16:16:23.783Z,33.40
2023-04-17T16:18:51.508Z,33.20
2023-04-17T16:21:19.205Z,33.10
2023-04-17T16:23:49.073Z,33.00
2023-04-17T16:26:16.845Z,32.90
2023-04-17T16:28:45.773Z,32.80
2023-04-17T16:31:16.939Z,32.70
2023-04-17T16:33:46.648Z,32.60
2023-04-17T16:36:14.656Z,32.50
2023-04-17T16:38:42.731Z,32.30
2023-04-17T16:41:10.750Z,32.20
2023-04-17T16:43:38.721Z,32.10
2023-04-17T16:46:18.296Z,31.90
2023-04-17T16:48:52.104Z,31.90
2023-04-17T16:51:21.687Z,31.70
2023-04-17T16:53:49.607Z,31.60
2023-04-17T16:56:18.018Z,31.50
2023-04-17T16:58:46.458Z,31.40
2023-04-17T17:01:14.527Z,31.30
2023-04-17T17:03:43.586Z,31.20
2023-04-17T17:06:13.243Z,31.00
2023-04-17T17:08:43.616Z,31.00
2023-04-17T17:11:11.616Z,30.90
2023-04-17T17:13:39.501Z,30.80
2023-04-17T17:16:07.385Z,30.70
2023-04-17T17:18:35.335Z,30.60
2023-04-17T17:21:03.502Z,30.50
2023-04-17T17:23:32.707Z,30.40
2023-04-17T17:26:00.931Z,30.30
2023-04-17T17:28:28.736Z,30.20
2023-04-17T17:31:01.813Z,30.10
2023-04-17T17:33:30.129Z,30.00
2023-04-17T17:35:58.167Z,29.90
2023-04-17T17:38:28.657Z,29.90
2023-04-17T17:40:58.131Z,29.70
2023-04-17T17:43:26.495Z,29.70
2023-04-17T17:45:54.999Z,29.60
2023-04-17T17:48:22.984Z,29.50
2023-04-17T17:50:54.725Z,29.30
2023-04-17T17:53:26.197Z,29.30
2023-04-17T17:55:54.993Z,29.20
2023-04-17T17:58:24.597Z,29.20
2023-04-17T18:00:52.940Z,29.10
2023-04-17T18:03:21.395Z,29.00
2023-04-17T18:05:49.367Z,28.90
2023-04-17T18:08:17.635Z,28.80
2023-04-17T18:10:45.314Z,28.70
2023-04-17T18:13:13.056Z,28.60
2023-04-17T18:15:42.844Z,28.50
2023-04-17T18:18:10.910Z,28.40
2023-04-17T18:20:40.337Z,28.40
2023-04-17T18:23:08.208Z,28.30
2023-04-17T18:25:37.161Z,28.20
2023-04-17T18:28:05.267Z,28.10
2023-04-17T18:30:33.803Z,28.00
2023-04-17T18:33:03.205Z,27.90
2023-04-17T18:35:31.531Z,27.90
2023-04-17T18:37:59.486Z,27.80
2023-04-17T18:40:27.717Z,27.70
2023-04-17T18:42:56.094Z,27.60
2023-04-17T18:45:24.435Z,27.50
2023-04-17T18:47:52.810Z,27.50
2023-04-17T18:50:22.373Z,27.40
2023-04-17T18:52:51.371Z,27.30
2023-04-17T18:55:19.538Z,27.30
2023-04-17T18:57:47.552Z,27.20
2023-04-17T19:00:16.374Z,27.10
2023-04-17T19:02:44.493Z,27.00
2023-04-17T19:05:12.563Z,27.00
2023-04-17T19:07:42.180Z,26.90
2023-04-17T19:10:11.074Z,26.90
2023-04-17T19:12:39.420Z,26.80
2023-04-17T19:15:08.751Z,26.70
2023-04-17T19:17:37.035Z,26.60
2023-04-17T19:20:05.459Z,26.60
2023-04-17T19:22:33.547Z,26.50
2023-04-17T19:25:02.834Z,26.50
2023-04-17T19:27:31.316Z,26.30
2023-04-17T19:29:59.182Z,26.30
2023-04-17T19:32:27.753Z,26.20
2023-04-17T19:34:56.541Z,26.20
2023-04-17T19:37:24.468Z,26.10
2023-04-17T19:39:56.409Z,26.00
2023-04-17T19:42:26.681Z,26.00
2023-04-17T19:44:55.095Z,25.90
2023-04-17T19:47:24.147Z,25.90
2023-04-17T19:49:52.211Z,25.80
2023-04-17T19:52:24.210Z,25.70
2023-04-17T19:54:56.283Z,25.70
2023-04-17T19:57:25.860Z,25.60
2023-04-17T19:59:57.046Z,25.60
2023-04-17T20:02:25.086Z,25.50
2023-04-17T20:04:53.799Z,25.50
2023-04-17T20:07:21.838Z,25.40
2023-04-17T20:09:49.951Z,25.40
2023-04-17T20:12:19.525Z,25.30
2023-04-17T20:14:50.574Z,25.30
2023-04-17T20:17:19.874Z,25.20
2023-04-17T20:19:47.957Z,25.20
2023-04-17T20:22:16.190Z,25.10
2023-04-17T20:24:44.596Z,25.10
2023-04-17T20:27:12.545Z,25.00
2023-04-17T20:29:41.023Z,25.00
2023-04-17T20:32:10.523Z,25.00
2023-04-17T20:34:38.445Z,24.90
2023-04-17T20:37:06.511Z,24.90
2023-04-17T20:39:34.442Z,24.80
2023-04-17T20:42:02.511Z,24.80
2023-04-17T20:44:30.877Z,24.70
2023-04-17T20:46:58.804Z,24.70
2023-04-17T20:49:28.619Z,24.60
2023-04-17T20:51:56.650Z,24.60
2023-04-17T20:54:26.161Z,24.50
2023-04-17T20:56:54.226Z,24.50
2023-04-17T20:59:22.318Z,24.50
2023-04-17T21:01:51.406Z,24.40
2023-04-17T21:04:19.632Z,24.30
2023-04-17T21:06:49.086Z,24.30
2023-04-17T21:09:17.088Z,24.30
2023-04-17T21:11:44.986Z,24.30
2023-04-17T21:14:15.239Z,24.20
2023-04-17T21:16:45.369Z,24.10
2023-04-17T21:19:13.471Z,24.10
2023-04-17T21:21:42.202Z,24.10
2023-04-17T21:24:11.810Z,24.00
2023-04-17T21:26:40.469Z,24.00
2023-04-17T21:29:08.520Z,24.00
2023-04-17T21:31:37.156Z,23.90
2023-04-17T21:34:05.393Z,23.90
2023-04-17T21:36:33.749Z,23.80
2023-04-17T21:39:01.784Z,23.80
2023-04-17T21:41:32.401Z,23.70
2023-04-17T21:44:02.587Z,23.70
2023-04-17T21:46:31.239Z,23.70
2023-04-17T21:48:59.014Z,23.60
2023-04-17T21:51:27.394Z,23.60
2023-04-17T21:53:55.945Z,23.50
2023-04-17T21:56:24.774Z,23.50
2023-04-17T21:58:54.212Z,23.40
2023-04-17T22:01:22.401Z,23.40
2023-04-17T22:03:50.363Z,23.40
2023-04-17T22:06:18.372Z,23.30
2023-04-17T22:08:46.356Z,23.20
2023-04-17T22:11:14.643Z,23.20
2023-04-17T22:13:42.843Z,23.20
2023-04-17T22:16:12.575Z,23.20
2023-04-17T22:18:40.590Z,23.10
2023-04-17T22:21:09.126Z,23.10
2023-04-17T22:23:37.194Z,23.10
2023-04-17T22:26:05.900Z,23.00
2023-04-17T22:28:34.237Z,23.00
2023-04-17T22:31:02.530Z,23.00
2023-04-17T22:33:32.459Z,23.00
2023-04-17T22:36:00.431Z,22.90
2023-04-17T22:38:28.752Z,22.90
2023-04-17T22:40:56.886Z,22.90
2023-04-17T22:43:25.415Z,22.80
2023-04-17T22:45:53.664Z,22.80
2023-04-17T22:48:24.656Z,22.80
2023-04-17T22:50:55.852Z,22.70
2023-04-17T22:53:24.136Z,22.70
2023-04-17T22:56:01.381Z,22.70
2023-04-17T22:58:29.717Z,22.60
2023-04-17T23:00:57.741Z,22.60
2023-04-17T23:03:25.848Z,22.60
2023-04-17T23:05:55.919Z,22.60
2023-04-17T23:08:24.732Z,22.60
2023-04-17T23:10:58.562Z,22.60
2023-04-17T23:13:27.344Z,22.60
2023-04-17T23:15:55.440Z,22.50
2023-04-17T23:18:23.450Z,22.50
2023-04-17T23:20:51.862Z,22.50
2023-04-17T23:23:21.262Z,22.40
2023-04-17T23:25:49.762Z,22.40
2023-04-17T23:28:17.783Z,22.40
2023-04-17T23:30:45.750Z,22.30
2023-04-17T23:33:13.830Z,22.40
2023-04-17T23:35:41.792Z,22.30
2023-04-17T23:38:09.807Z,22.30
2023-04-17T23:40:39.320Z,22.20
2023-04-17T23:43:08.075Z,22.20
2023-04-17T23:45:36.201Z,22.20
2023-04-17T23:48:04.144Z,22.10
2023-04-17T23:50:32.484Z,22.10
2023-04-17T23:53:00.560Z,22.10
2023-04-17T23:55:28.686Z,22.10
2023-04-17T23:57:58.432Z,22.10
